sensor_id;sensor_type;location;lat;lon;timestamp;pressure;altitude;pressure_sealevel;temperature;humidity
74708;BME280;63360;50.104;8.074;2023-05-20T00:02:08;97585.00;;;10.80;71.72
74708;BME280;63360;50.104;8.074;2023-05-20T00:04:34;97576.59;;;10.83;71.69
74708;BME280;63360;50.104;8.074;2023-05-20T00:07:01;97578.91;;;10.85;71.50
74708;BME280;63360;50.104;8.074;2023-05-20T00:09:27;97578.91;;;10.85;69.89
74708;BME280;63360;50.104;8.074;2023-05-20T00:11:54;97572.00;;;10.80;70.73
74708;BME280;63360;50.104;8.074;2023-05-20T00:14:21;97569.59;;;10.92;70.90
74708;BME280;63360;50.104;8.074;2023-05-20T00:16:47;97560.22;;;10.83;70.98
74708;BME280;63360;50.104;8.074;2023-05-20T00:19:14;97564.34;;;10.84;71.49
74708;BME280;63360;50.104;8.074;2023-05-20T00:21:40;97573.84;;;10.88;71.06
74708;BME280;63360;50.104;8.074;2023-05-20T00:24:07;97570.50;;;10.88;70.90
74708;BME280;63360;50.104;8.074;2023-05-20T00:26:33;97562.31;;;10.81;70.93
74708;BME280;63360;50.104;8.074;2023-05-20T00:28:59;97573.56;;;10.90;71.44
74708;BME280;63360;50.104;8.074;2023-05-20T00:31:26;97566.59;;;10.77;71.95
74708;BME280;63360;50.104;8.074;2023-05-20T00:33:52;97566.88;;;10.75;71.90
74708;BME280;63360;50.104;8.074;2023-05-20T00:36:19;97558.41;;;10.70;72.16
74708;BME280;63360;50.104;8.074;2023-05-20T00:38:45;97562.75;;;10.74;71.31
74708;BME280;63360;50.104;8.074;2023-05-20T00:41:12;97564.53;;;10.87;71.52
74708;BME280;63360;50.104;8.074;2023-05-20T00:43:38;97574.75;;;10.84;72.64
74708;BME280;63360;50.104;8.074;2023-05-20T00:46:05;97567.41;;;10.86;72.48
74708;BME280;63360;50.104;8.074;2023-05-20T00:48:42;97559.44;;;10.82;72.10
74708;BME280;63360;50.104;8.074;2023-05-20T00:51:10;97558.66;;;10.82;71.54
74708;BME280;63360;50.104;8.074;2023-05-20T00:53:38;97553.78;;;10.80;72.14
74708;BME280;63360;50.104;8.074;2023-05-20T00:56:05;97548.06;;;10.78;72.69
74708;BME280;63360;50.104;8.074;2023-05-20T00:58:33;97560.31;;;10.78;73.82
74708;BME280;63360;50.104;8.074;2023-05-20T01:01:01;97557.06;;;10.94;71.75
74708;BME280;63360;50.104;8.074;2023-05-20T01:03:28;97549.84;;;10.91;72.28
74708;BME280;63360;50.104;8.074;2023-05-20T01:05:55;97554.91;;;10.88;73.22
74708;BME280;63360;50.104;8.074;2023-05-20T01:08:23;97547.81;;;10.80;73.31
74708;BME280;63360;50.104;8.074;2023-05-20T01:10:57;97559.78;;;10.89;72.42
74708;BME280;63360;50.104;8.074;2023-05-20T01:13:28;97556.53;;;10.84;73.17
74708;BME280;63360;50.104;8.074;2023-05-20T01:16:00;97558.97;;;10.80;73.60
74708;BME280;63360;50.104;8.074;2023-05-20T01:18:30;97551.88;;;10.72;74.98
74708;BME280;63360;50.104;8.074;2023-05-20T01:20:58;97552.22;;;10.79;73.93
74708;BME280;63360;50.104;8.074;2023-05-20T01:23:32;97555.72;;;10.75;74.15
74708;BME280;63360;50.104;8.074;2023-05-20T01:25:59;97554.94;;;10.74;74.26
74708;BME280;63360;50.104;8.074;2023-05-20T01:28:25;97548.19;;;10.73;74.99
74708;BME280;63360;50.104;8.074;2023-05-20T01:30:55;97543.59;;;10.70;75.14
74708;BME280;63360;50.104;8.074;2023-05-20T01:33:23;97539.28;;;10.66;75.48
74708;BME280;63360;50.104;8.074;2023-05-20T01:35:50;97545.91;;;10.72;75.65
74708;BME280;63360;50.104;8.074;2023-05-20T01:38:18;97537.03;;;10.73;75.71
74708;BME280;63360;50.104;8.074;2023-05-20T01:40:45;97542.81;;;10.70;75.52
74708;BME280;63360;50.104;8.074;2023-05-20T01:43:13;97540.84;;;10.75;76.21
74708;BME280;63360;50.104;8.074;2023-05-20T01:45:43;97531.78;;;10.64;76.63
74708;BME280;63360;50.104;8.074;2023-05-20T01:48:10;97537.25;;;10.63;76.60
74708;BME280;63360;50.104;8.074;2023-05-20T01:50:38;97530.03;;;10.60;76.78
74708;BME280;63360;50.104;8.074;2023-05-20T01:53:04;97528.72;;;10.49;77.33
74708;BME280;63360;50.104;8.074;2023-05-20T01:55:33;97533.41;;;10.60;76.92
74708;BME280;63360;50.104;8.074;2023-05-20T01:58:00;97536.44;;;10.54;78.32
74708;BME280;63360;50.104;8.074;2023-05-20T02:00:27;97537.41;;;10.44;78.04
74708;BME280;63360;50.104;8.074;2023-05-20T02:02:53;97527.31;;;10.43;78.68
74708;BME280;63360;50.104;8.074;2023-05-20T02:05:20;97534.81;;;10.44;78.72
74708;BME280;63360;50.104;8.074;2023-05-20T02:07:46;97534.81;;;10.44;78.79
74708;BME280;63360;50.104;8.074;2023-05-20T02:10:13;97529.94;;;10.43;79.07
74708;BME280;63360;50.104;8.074;2023-05-20T02:12:39;97522.81;;;10.34;79.27
74708;BME280;63360;50.104;8.074;2023-05-20T02:15:06;97530.44;;;10.31;79.79
74708;BME280;63360;50.104;8.074;2023-05-20T02:17:33;97524.97;;;10.32;80.01
74708;BME280;63360;50.104;8.074;2023-05-20T02:19:59;97530.91;;;10.33;80.55
74708;BME280;63360;50.104;8.074;2023-05-20T02:22:25;97520.34;;;10.29;81.04
74708;BME280;63360;50.104;8.074;2023-05-20T02:24:52;97510.44;;;10.18;80.91
74708;BME280;63360;50.104;8.074;2023-05-20T02:27:18;97522.38;;;10.19;82.00
74708;BME280;63360;50.104;8.074;2023-05-20T02:29:45;97522.56;;;10.22;81.50
74708;BME280;63360;50.104;8.074;2023-05-20T02:32:11;97525.81;;;10.28;81.97
74708;BME280;63360;50.104;8.074;2023-05-20T02:34:38;97527.75;;;10.22;82.01
74708;BME280;63360;50.104;8.074;2023-05-20T02:37:04;97529.00;;;10.25;81.89
74708;BME280;63360;50.104;8.074;2023-05-20T02:39:30;97529.59;;;10.22;81.93
74708;BME280;63360;50.104;8.074;2023-05-20T02:41:57;97525.34;;;10.26;81.29
74708;BME280;63360;50.104;8.074;2023-05-20T02:44:23;97518.91;;;10.23;82.43
74708;BME280;63360;50.104;8.074;2023-05-20T02:46:50;97513.63;;;10.15;82.42
74708;BME280;63360;50.104;8.074;2023-05-20T02:49:17;97518.56;;;10.16;83.57
74708;BME280;63360;50.104;8.074;2023-05-20T02:51:43;97515.34;;;10.19;83.12
74708;BME280;63360;50.104;8.074;2023-05-20T02:54:09;97511.81;;;10.15;83.55
74708;BME280;63360;50.104;8.074;2023-05-20T02:56:36;97511.22;;;10.18;83.39
74708;BME280;63360;50.104;8.074;2023-05-20T02:59:02;97503.78;;;10.12;83.53
74708;BME280;63360;50.104;8.074;2023-05-20T03:01:30;97494.84;;;10.04;83.52
74708;BME280;63360;50.104;8.074;2023-05-20T03:03:56;97502.38;;;10.06;84.29
74708;BME280;63360;50.104;8.074;2023-05-20T03:06:23;97506.03;;;10.05;84.62
74708;BME280;63360;50.104;8.074;2023-05-20T03:08:49;97515.25;;;10.11;85.24
74708;BME280;63360;50.104;8.074;2023-05-20T03:11:16;97501.09;;;10.03;84.72
74708;BME280;63360;50.104;8.074;2023-05-20T03:13:42;97501.47;;;10.10;84.58
74708;BME280;63360;50.104;8.074;2023-05-20T03:16:09;97508.31;;;10.20;85.01
74708;BME280;63360;50.104;8.074;2023-05-20T03:18:38;97505.91;;;10.10;84.94
74708;BME280;63360;50.104;8.074;2023-05-20T03:21:05;97489.56;;;9.96;85.65
74708;BME280;63360;50.104;8.074;2023-05-20T03:23:31;97505.91;;;10.10;85.65
74708;BME280;63360;50.104;8.074;2023-05-20T03:25:57;97504.31;;;10.14;85.68
74708;BME280;63360;50.104;8.074;2023-05-20T03:28:24;97501.59;;;10.05;85.69
74708;BME280;63360;50.104;8.074;2023-05-20T03:30:50;97500.50;;;10.20;85.05
74708;BME280;63360;50.104;8.074;2023-05-20T03:33:17;97507.66;;;10.14;85.79
74708;BME280;63360;50.104;8.074;2023-05-20T03:35:43;97504.09;;;10.10;85.96
74708;BME280;63360;50.104;8.074;2023-05-20T03:38:10;97497.19;;;10.06;86.11
74708;BME280;63360;50.104;8.074;2023-05-20T03:40:36;97510.34;;;10.09;86.16
74708;BME280;63360;50.104;8.074;2023-05-20T03:43:02;97496.09;;;10.07;86.63
74708;BME280;63360;50.104;8.074;2023-05-20T03:45:29;97502.06;;;10.07;86.36
74708;BME280;63360;50.104;8.074;2023-05-20T03:47:55;97494.97;;;9.99;86.58
74708;BME280;63360;50.104;8.074;2023-05-20T03:50:22;97502.06;;;10.07;86.97
74708;BME280;63360;50.104;8.074;2023-05-20T03:52:48;97500.81;;;10.05;87.55
74708;BME280;63360;50.104;8.074;2023-05-20T03:55:15;97495.44;;;10.01;87.73
74708;BME280;63360;50.104;8.074;2023-05-20T03:57:42;97499.00;;;10.05;87.95
74708;BME280;63360;50.104;8.074;2023-05-20T04:00:08;97490.53;;;10.00;88.58
74708;BME280;63360;50.104;8.074;2023-05-20T04:02:37;97504.66;;;10.07;88.55
74708;BME280;63360;50.104;8.074;2023-05-20T04:05:04;97487.63;;;10.01;88.37
74708;BME280;63360;50.104;8.074;2023-05-20T04:07:31;97495.81;;;10.08;88.39
74708;BME280;63360;50.104;8.074;2023-05-20T04:09:57;97491.66;;;10.07;88.57
74708;BME280;63360;50.104;8.074;2023-05-20T04:12:24;97502.19;;;10.16;88.38
74708;BME280;63360;50.104;8.074;2023-05-20T04:14:59;97488.59;;;10.19;88.32
74708;BME280;63360;50.104;8.074;2023-05-20T04:17:28;97493.31;;;10.17;88.46
74708;BME280;63360;50.104;8.074;2023-05-20T04:19:56;97484.75;;;10.16;88.49
74708;BME280;63360;50.104;8.074;2023-05-20T04:22:23;97497.81;;;10.25;88.50
74708;BME280;63360;50.104;8.074;2023-05-20T04:24:49;97490.00;;;10.25;88.74
74708;BME280;63360;50.104;8.074;2023-05-20T04:27:16;97492.97;;;10.32;88.39
74708;BME280;63360;50.104;8.074;2023-05-20T04:29:42;97493.25;;;10.30;88.37
74708;BME280;63360;50.104;8.074;2023-05-20T04:32:15;97481.47;;;10.24;88.71
74708;BME280;63360;50.104;8.074;2023-05-20T04:34:42;97485.56;;;10.25;88.70
74708;BME280;63360;50.104;8.074;2023-05-20T04:37:11;97497.09;;;10.33;88.79
74708;BME280;63360;50.104;8.074;2023-05-20T04:39:38;97494.03;;;10.31;89.24
74708;BME280;63360;50.104;8.074;2023-05-20T04:42:05;97479.78;;;10.28;89.36
74708;BME280;63360;50.104;8.074;2023-05-20T04:44:31;97487.94;;;10.35;89.11
74708;BME280;63360;50.104;8.074;2023-05-20T04:46:58;97493.69;;;10.46;89.08
74708;BME280;63360;50.104;8.074;2023-05-20T04:49:25;97478.50;;;10.40;88.27
74708;BME280;63360;50.104;8.074;2023-05-20T04:51:52;97486.50;;;10.43;89.39
74708;BME280;63360;50.104;8.074;2023-05-20T04:54:20;97482.16;;;10.39;89.69
74708;BME280;63360;50.104;8.074;2023-05-20T04:56:47;97491.56;;;10.48;88.84
74708;BME280;63360;50.104;8.074;2023-05-20T04:59:13;97491.56;;;10.48;88.98
74708;BME280;63360;50.104;8.074;2023-05-20T05:01:40;97487.88;;;10.49;89.33
74708;BME280;63360;50.104;8.074;2023-05-20T05:04:06;97487.03;;;10.54;89.46
74708;BME280;63360;50.104;8.074;2023-05-20T05:06:33;97484.25;;;10.50;89.59
74708;BME280;63360;50.104;8.074;2023-05-20T05:08:59;97492.38;;;10.57;89.77
74708;BME280;63360;50.104;8.074;2023-05-20T05:11:26;97482.44;;;10.59;89.58
74708;BME280;63360;50.104;8.074;2023-05-20T05:13:53;97476.84;;;10.66;88.68
74708;BME280;63360;50.104;8.074;2023-05-20T05:16:20;97474.53;;;10.64;88.94
74708;BME280;63360;50.104;8.074;2023-05-20T05:18:47;97472.22;;;10.63;89.29
74708;BME280;63360;50.104;8.074;2023-05-20T05:21:13;97467.13;;;10.80;89.06
74708;BME280;63360;50.104;8.074;2023-05-20T05:23:40;97483.91;;;10.96;88.82
74708;BME280;63360;50.104;8.074;2023-05-20T05:26:07;97482.44;;;11.12;87.79
74708;BME280;63360;50.104;8.074;2023-05-20T05:28:34;97463.66;;;11.24;86.57
74708;BME280;63360;50.104;8.074;2023-05-20T05:31:00;97465.09;;;11.38;85.39
74708;BME280;63360;50.104;8.074;2023-05-20T05:33:27;97477.44;;;11.72;84.14
74708;BME280;63360;50.104;8.074;2023-05-20T05:35:54;97458.63;;;11.84;83.06
74708;BME280;63360;50.104;8.074;2023-05-20T05:38:24;97459.41;;;12.01;82.95
74708;BME280;63360;50.104;8.074;2023-05-20T05:40:50;97452.50;;;12.31;81.60
74708;BME280;63360;50.104;8.074;2023-05-20T05:43:17;97450.00;;;12.52;79.81
74708;BME280;63360;50.104;8.074;2023-05-20T05:45:43;97453.03;;;12.71;78.25
74708;BME280;63360;50.104;8.074;2023-05-20T05:48:10;97451.28;;;12.92;77.51
74708;BME280;63360;50.104;8.074;2023-05-20T05:50:37;97457.66;;;13.20;76.59
74708;BME280;63360;50.104;8.074;2023-05-20T05:53:03;97448.09;;;13.33;75.16
74708;BME280;63360;50.104;8.074;2023-05-20T05:55:29;97446.69;;;13.35;75.30
74708;BME280;63360;50.104;8.074;2023-05-20T05:57:57;97451.56;;;13.46;75.86
74708;BME280;63360;50.104;8.074;2023-05-20T06:00:23;97441.75;;;13.43;75.23
74708;BME280;63360;50.104;8.074;2023-05-20T06:02:50;97446.41;;;13.28;75.86
74708;BME280;63360;50.104;8.074;2023-05-20T06:05:17;97451.56;;;13.46;75.17
74708;BME280;63360;50.104;8.074;2023-05-20T06:07:43;97455.59;;;13.64;74.21
74708;BME280;63360;50.104;8.074;2023-05-20T06:10:10;97450.19;;;13.69;74.58
74708;BME280;63360;50.104;8.074;2023-05-20T06:12:36;97456.97;;;13.90;74.75
74708;BME280;63360;50.104;8.074;2023-05-20T06:15:03;97449.75;;;14.08;73.06
74708;BME280;63360;50.104;8.074;2023-05-20T06:17:29;97457.16;;;14.27;71.28
74708;BME280;63360;50.104;8.074;2023-05-20T06:19:56;97455.25;;;14.15;73.43
74708;BME280;63360;50.104;8.074;2023-05-20T06:22:22;97451.94;;;14.06;73.09
74708;BME280;63360;50.104;8.074;2023-05-20T06:24:49;97443.25;;;14.14;72.82
74708;BME280;63360;50.104;8.074;2023-05-20T06:27:15;97443.06;;;14.40;72.27
74708;BME280;63360;50.104;8.074;2023-05-20T06:29:42;97452.41;;;14.62;71.06
74708;BME280;63360;50.104;8.074;2023-05-20T06:32:09;97439.88;;;14.67;71.12
74708;BME280;63360;50.104;8.074;2023-05-20T06:34:36;97442.19;;;14.81;70.71
74708;BME280;63360;50.104;8.074;2023-05-20T06:37:02;97443.31;;;15.04;70.00
74708;BME280;63360;50.104;8.074;2023-05-20T06:39:29;97436.09;;;15.01;69.05
74708;BME280;63360;50.104;8.074;2023-05-20T06:41:56;97448.13;;;15.02;69.04
74708;BME280;63360;50.104;8.074;2023-05-20T06:44:22;97439.91;;;14.91;68.74
74708;BME280;63360;50.104;8.074;2023-05-20T06:46:48;97436.53;;;14.91;69.08
74708;BME280;63360;50.104;8.074;2023-05-20T06:49:15;97437.03;;;14.72;70.51
74708;BME280;63360;50.104;8.074;2023-05-20T06:51:41;97432.94;;;14.50;71.88
74708;BME280;63360;50.104;8.074;2023-05-20T06:54:09;97422.00;;;14.81;70.90
74708;BME280;63360;50.104;8.074;2023-05-20T06:56:36;97430.47;;;15.47;69.79
74708;BME280;63360;50.104;8.074;2023-05-20T06:59:02;97422.78;;;15.42;68.26
74708;BME280;63360;50.104;8.074;2023-05-20T07:01:28;97414.53;;;15.92;67.08
74708;BME280;63360;50.104;8.074;2023-05-20T07:03:55;97412.66;;;15.53;67.17
74708;BME280;63360;50.104;8.074;2023-05-20T07:06:22;97427.16;;;15.74;69.28
74708;BME280;63360;50.104;8.074;2023-05-20T07:08:49;97422.09;;;15.82;67.96
74708;BME280;63360;50.104;8.074;2023-05-20T07:11:15;97414.28;;;15.45;68.32
74708;BME280;63360;50.104;8.074;2023-05-20T07:13:42;97427.50;;;15.12;69.64
74708;BME280;63360;50.104;8.074;2023-05-20T07:16:08;97418.69;;;14.60;72.04
74708;BME280;63360;50.104;8.074;2023-05-20T07:18:35;97418.06;;;14.63;72.77
74708;BME280;63360;50.104;8.074;2023-05-20T07:21:01;97416.34;;;15.15;71.98
74708;BME280;63360;50.104;8.074;2023-05-20T07:23:28;97403.13;;;15.36;70.77
74708;BME280;63360;50.104;8.074;2023-05-20T07:25:54;97412.19;;;15.63;69.21
74708;BME280;63360;50.104;8.074;2023-05-20T07:28:20;97416.03;;;15.53;69.17
74708;BME280;63360;50.104;8.074;2023-05-20T07:30:48;97411.97;;;15.68;69.21
74708;BME280;63360;50.104;8.074;2023-05-20T07:33:16;97410.22;;;15.36;69.52
74708;BME280;63360;50.104;8.074;2023-05-20T07:35:43;97402.16;;;15.41;71.10
74708;BME280;63360;50.104;8.074;2023-05-20T07:38:11;97410.78;;;15.41;71.25
74708;BME280;63360;50.104;8.074;2023-05-20T07:40:39;97415.28;;;15.16;71.86
74708;BME280;63360;50.104;8.074;2023-05-20T07:43:07;97408.28;;;15.08;71.88
74708;BME280;63360;50.104;8.074;2023-05-20T07:45:34;97401.94;;;14.97;72.03
74708;BME280;63360;50.104;8.074;2023-05-20T07:48:03;97397.88;;;14.88;73.69
74708;BME280;63360;50.104;8.074;2023-05-20T07:50:30;97396.59;;;15.06;72.81
74708;BME280;63360;50.104;8.074;2023-05-20T07:52:57;97392.66;;;15.24;72.23
74708;BME280;63360;50.104;8.074;2023-05-20T07:55:23;97395.19;;;15.21;71.88
74708;BME280;63360;50.104;8.074;2023-05-20T07:57:50;97394.94;;;15.26;72.12
74708;BME280;63360;50.104;8.074;2023-05-20T08:00:16;97401.38;;;15.04;72.16
74708;BME280;63360;50.104;8.074;2023-05-20T08:02:43;97404.22;;;14.99;72.53
74708;BME280;63360;50.104;8.074;2023-05-20T08:05:09;97398.44;;;14.81;72.19
74708;BME280;63360;50.104;8.074;2023-05-20T08:07:36;97393.63;;;14.71;73.35
74708;BME280;63360;50.104;8.074;2023-05-20T08:10:03;97397.03;;;14.96;73.86
74708;BME280;63360;50.104;8.074;2023-05-20T08:12:29;97395.75;;;15.14;74.87
74708;BME280;63360;50.104;8.074;2023-05-20T08:14:56;97384.72;;;15.08;72.64
74708;BME280;63360;50.104;8.074;2023-05-20T08:17:22;97381.09;;;15.01;72.25
74708;BME280;63360;50.104;8.074;2023-05-20T08:19:49;97384.59;;;15.05;72.04
74708;BME280;63360;50.104;8.074;2023-05-20T08:22:15;97395.28;;;15.00;72.48
74708;BME280;63360;50.104;8.074;2023-05-20T08:24:42;97395.38;;;14.91;74.23
74708;BME280;63360;50.104;8.074;2023-05-20T08:27:08;97393.28;;;14.73;73.60
74708;BME280;63360;50.104;8.074;2023-05-20T08:29:35;97388.59;;;14.90;74.99
74708;BME280;63360;50.104;8.074;2023-05-20T08:32:01;97387.66;;;14.95;74.58
74708;BME280;63360;50.104;8.074;2023-05-20T08:34:28;97396.28;;;14.95;74.87
74708;BME280;63360;50.104;8.074;2023-05-20T08:36:54;97383.06;;;14.92;74.08
74708;BME280;63360;50.104;8.074;2023-05-20T08:39:24;97377.81;;;15.16;74.76
74708;BME280;63360;50.104;8.074;2023-05-20T08:41:51;97386.13;;;15.30;74.17
74708;BME280;63360;50.104;8.074;2023-05-20T08:44:18;97394.88;;;15.22;73.38
74708;BME280;63360;50.104;8.074;2023-05-20T08:46:45;97391.56;;;15.13;73.47
74708;BME280;63360;50.104;8.074;2023-05-20T08:49:12;97396.06;;;15.00;73.13
74708;BME280;63360;50.104;8.074;2023-05-20T08:51:38;97387.75;;;14.86;73.86
74708;BME280;63360;50.104;8.074;2023-05-20T08:54:07;97386.34;;;14.77;73.56
74708;BME280;63360;50.104;8.074;2023-05-20T08:56:34;97384.28;;;14.82;75.26
74708;BME280;63360;50.104;8.074;2023-05-20T08:59:02;97395.47;;;14.83;75.79
74708;BME280;63360;50.104;8.074;2023-05-20T09:01:29;97381.41;;;14.75;75.74
74708;BME280;63360;50.104;8.074;2023-05-20T09:03:55;97391.56;;;14.89;74.87
74708;BME280;63360;50.104;8.074;2023-05-20T09:06:22;97387.88;;;14.90;75.00
74708;BME280;63360;50.104;8.074;2023-05-20T09:08:49;97385.13;;;14.98;75.42
74708;BME280;63360;50.104;8.074;2023-05-20T09:11:19;97381.06;;;15.25;75.64
74708;BME280;63360;50.104;8.074;2023-05-20T09:13:49;97382.81;;;15.33;74.26
74708;BME280;63360;50.104;8.074;2023-05-20T09:16:15;97386.97;;;15.46;74.36
74708;BME280;63360;50.104;8.074;2023-05-20T09:18:42;97383.28;;;15.47;72.59
74708;BME280;63360;50.104;8.074;2023-05-20T09:21:09;97383.47;;;15.54;72.79
74708;BME280;63360;50.104;8.074;2023-05-20T09:23:36;97374.47;;;15.80;71.74
74708;BME280;63360;50.104;8.074;2023-05-20T09:26:03;97368.88;;;16.09;72.06
74708;BME280;63360;50.104;8.074;2023-05-20T09:28:29;97369.34;;;16.26;71.44
74708;BME280;63360;50.104;8.074;2023-05-20T09:30:59;97377.66;;;16.01;70.44
74708;BME280;63360;50.104;8.074;2023-05-20T09:33:30;97375.38;;;15.99;69.83
74708;BME280;63360;50.104;8.074;2023-05-20T09:36:04;97370.34;;;16.22;71.86
74708;BME280;63360;50.104;8.074;2023-05-20T09:38:33;97390.16;;;16.19;70.85
74708;BME280;63360;50.104;8.074;2023-05-20T09:41:06;97387.16;;;16.05;70.15
74708;BME280;63360;50.104;8.074;2023-05-20T09:43:34;97390.72;;;16.13;70.03
74708;BME280;63360;50.104;8.074;2023-05-20T09:46:03;97382.72;;;16.21;69.41
74708;BME280;63360;50.104;8.074;2023-05-20T09:48:29;97373.03;;;16.10;70.83
74708;BME280;63360;50.104;8.074;2023-05-20T09:51:00;97383.31;;;16.15;70.00
74708;BME280;63360;50.104;8.074;2023-05-20T09:53:27;97377.28;;;15.87;70.04
74708;BME280;63360;50.104;8.074;2023-05-20T09:55:54;97378.00;;;15.99;69.86
74708;BME280;63360;50.104;8.074;2023-05-20T09:58:22;97374.94;;;15.97;71.47
74708;BME280;63360;50.104;8.074;2023-05-20T10:00:48;97362.41;;;15.91;71.28
74708;BME280;63360;50.104;8.074;2023-05-20T10:03:16;97370.84;;;15.84;69.88
74708;BME280;63360;50.104;8.074;2023-05-20T10:11:37;97373.44;;;15.56;73.24
74708;BME280;63360;50.104;8.074;2023-05-20T10:14:25;97351.50;;;15.49;72.75
74708;BME280;63360;50.104;8.074;2023-05-20T10:17:08;97357.59;;;15.53;72.64
74708;BME280;63360;50.104;8.074;2023-05-20T10:19:36;97345.56;;;15.52;72.41
74708;BME280;63360;50.104;8.074;2023-05-20T10:22:06;97359.72;;;15.75;72.62
74708;BME280;63360;50.104;8.074;2023-05-20T10:24:35;97356.13;;;15.67;72.32
74708;BME280;63360;50.104;8.074;2023-05-20T10:27:13;97354.84;;;15.61;71.58
74708;BME280;63360;50.104;8.074;2023-05-20T10:29:56;97360.53;;;15.63;70.75
74708;BME280;63360;50.104;8.074;2023-05-20T10:32:28;97348.84;;;15.61;71.45
74708;BME280;63360;50.104;8.074;2023-05-20T10:35:08;97364.53;;;15.73;72.42
74708;BME280;63360;50.104;8.074;2023-05-20T10:37:45;97371.31;;;15.74;71.40
74708;BME280;63360;50.104;8.074;2023-05-20T10:40:14;97368.63;;;15.58;72.29
74708;BME280;63360;50.104;8.074;2023-05-20T10:42:41;97360.63;;;15.67;71.09
74708;BME280;63360;50.104;8.074;2023-05-20T10:45:08;97365.75;;;15.63;71.44
74708;BME280;63360;50.104;8.074;2023-05-20T10:47:35;97362.50;;;15.54;72.13
74708;BME280;63360;50.104;8.074;2023-05-20T10:50:02;97364.16;;;15.59;72.24
74708;BME280;63360;50.104;8.074;2023-05-20T10:52:35;97366.84;;;15.62;73.86
74708;BME280;63360;50.104;8.074;2023-05-20T10:55:02;97350.88;;;15.67;70.99
74708;BME280;63360;50.104;8.074;2023-05-20T10:57:30;97354.56;;;15.78;72.19
74708;BME280;63360;50.104;8.074;2023-05-20T10:59:57;97354.28;;;15.96;71.64
74708;BME280;63360;50.104;8.074;2023-05-20T11:02:25;97354.28;;;15.96;71.70
74708;BME280;63360;50.104;8.074;2023-05-20T11:04:56;97362.63;;;16.13;70.72
74708;BME280;63360;50.104;8.074;2023-05-20T11:07:27;97358.53;;;16.00;70.32
74708;BME280;63360;50.104;8.074;2023-05-20T11:09:55;97355.13;;;16.00;71.62
74708;BME280;63360;50.104;8.074;2023-05-20T11:12:23;97357.19;;;16.06;71.57
74708;BME280;63360;50.104;8.074;2023-05-20T11:14:50;97350.66;;;16.00;70.26
74708;BME280;63360;50.104;8.074;2023-05-20T11:17:18;97336.78;;;16.00;70.87
74708;BME280;63360;50.104;8.074;2023-05-20T11:19:47;97329.34;;;16.02;71.72
74708;BME280;63360;50.104;8.074;2023-05-20T11:22:14;97337.56;;;16.16;71.86
74708;BME280;63360;50.104;8.074;2023-05-20T11:24:40;97329.22;;;16.26;72.68
74708;BME280;63360;50.104;8.074;2023-05-20T11:27:07;97327.94;;;16.20;70.88
74708;BME280;63360;50.104;8.074;2023-05-20T11:29:33;97315.06;;;16.15;71.19
74708;BME280;63360;50.104;8.074;2023-05-20T11:32:00;97309.06;;;16.30;71.56
74708;BME280;63360;50.104;8.074;2023-05-20T11:34:34;97299.84;;;16.36;71.41
74708;BME280;63360;50.104;8.074;2023-05-20T11:37:01;97302.78;;;16.34;69.84
74708;BME280;63360;50.104;8.074;2023-05-20T11:39:29;97307.72;;;16.20;69.16
74708;BME280;63360;50.104;8.074;2023-05-20T11:41:56;97297.94;;;16.05;70.66
74708;BME280;63360;50.104;8.074;2023-05-20T11:44:23;97317.16;;;16.09;69.01
74708;BME280;63360;50.104;8.074;2023-05-20T11:46:50;97324.97;;;16.21;71.61
74708;BME280;63360;50.104;8.074;2023-05-20T11:49:16;97309.97;;;16.22;70.04
74708;BME280;63360;50.104;8.074;2023-05-20T11:51:43;97299.59;;;16.25;68.74
74708;BME280;63360;50.104;8.074;2023-05-20T11:54:10;97299.38;;;16.18;70.05
74708;BME280;63360;50.104;8.074;2023-05-20T11:56:37;97293.81;;;16.35;69.55
74708;BME280;63360;50.104;8.074;2023-05-20T11:59:05;97304.31;;;16.35;69.89
74708;BME280;63360;50.104;8.074;2023-05-20T12:01:34;97298.97;;;16.32;69.14
74708;BME280;63360;50.104;8.074;2023-05-20T12:04:06;97298.97;;;16.32;69.39
74708;BME280;63360;50.104;8.074;2023-05-20T12:06:34;97288.91;;;16.34;69.32
74708;BME280;63360;50.104;8.074;2023-05-20T12:09:03;97302.25;;;16.57;70.59
74708;BME280;63360;50.104;8.074;2023-05-20T12:11:33;97294.88;;;16.62;69.67
74708;BME280;63360;50.104;8.074;2023-05-20T12:14:03;97299.44;;;16.65;69.19
74708;BME280;63360;50.104;8.074;2023-05-20T12:16:31;97288.25;;;16.84;67.50
74708;BME280;63360;50.104;8.074;2023-05-20T12:18:59;97289.34;;;16.83;68.45
74708;BME280;63360;50.104;8.074;2023-05-20T12:21:27;97292.59;;;16.76;68.75
74708;BME280;63360;50.104;8.074;2023-05-20T12:23:54;97285.63;;;16.68;68.86
74708;BME280;63360;50.104;8.074;2023-05-20T12:26:24;97292.75;;;16.68;69.08
74708;BME280;63360;50.104;8.074;2023-05-20T12:28:51;97290.72;;;16.61;68.34
74708;BME280;63360;50.104;8.074;2023-05-20T12:31:18;97296.88;;;16.37;69.40
74708;BME280;63360;50.104;8.074;2023-05-20T12:33:44;97285.69;;;16.41;69.20
74708;BME280;63360;50.104;8.074;2023-05-20T12:36:11;97278.59;;;16.41;68.95
74708;BME280;63360;50.104;8.074;2023-05-20T12:38:38;97278.84;;;16.52;68.41
74708;BME280;63360;50.104;8.074;2023-05-20T12:41:05;97287.91;;;16.70;68.42
74708;BME280;63360;50.104;8.074;2023-05-20T12:43:31;97280.41;;;16.87;68.32
74708;BME280;63360;50.104;8.074;2023-05-20T12:46:00;97276.78;;;16.92;68.09
74708;BME280;63360;50.104;8.074;2023-05-20T12:48:27;97278.09;;;17.02;66.34
74708;BME280;63360;50.104;8.074;2023-05-20T12:50:53;97277.72;;;17.19;67.20
74708;BME280;63360;50.104;8.074;2023-05-20T12:53:20;97274.16;;;17.11;66.76
74708;BME280;63360;50.104;8.074;2023-05-20T12:55:46;97279.91;;;17.17;66.35
74708;BME280;63360;50.104;8.074;2023-05-20T12:58:13;97274.78;;;17.05;66.40
74708;BME280;63360;50.104;8.074;2023-05-20T13:00:39;97280.78;;;17.21;67.51
74708;BME280;63360;50.104;8.074;2023-05-20T13:03:06;97276.97;;;17.18;66.64
74708;BME280;63360;50.104;8.074;2023-05-20T13:05:32;97285.56;;;17.34;66.07
74708;BME280;63360;50.104;8.074;2023-05-20T13:07:59;97264.44;;;17.31;66.08